createdAt,value
2019-03-06T00:00:32.584Z,5.50
2019-03-06T00:03:08.295Z,5.60
2019-03-06T00:05:38.511Z,5.60
2019-03-06T00:08:08.833Z,5.70
2019-03-06T00:10:39.299Z,5.70
2019-03-06T00:13:11.809Z,5.80
2019-03-06T00:15:47.149Z,5.80
2019-03-06T00:18:17.266Z,5.80
2019-03-06T00:20:50.485Z,5.90
2019-03-06T00:23:20.330Z,5.90
2019-03-06T00:25:50.900Z,5.90
2019-03-06T00:28:24.427Z,5.90
2019-03-06T00:30:54.264Z,6.00
2019-03-06T00:33:24.578Z,5.90
2019-03-06T00:35:55.306Z,6.00
2019-03-06T00:38:25.231Z,6.00
2019-03-06T00:41:20.163Z,6.00
2019-03-06T00:43:52.722Z,6.10
2019-03-06T00:46:22.458Z,6.10
2019-03-06T00:48:57.812Z,6.10
2019-03-06T00:51:27.544Z,6.10
2019-03-06T00:53:57.291Z,6.20
2019-03-06T00:56:27.308Z,6.20
2019-03-06T00:58:57.085Z,6.20
2019-03-06T01:01:27.003Z,6.20
2019-03-06T01:03:56.864Z,6.30
2019-03-06T01:06:29.345Z,6.30
2019-03-06T01:09:00.249Z,6.30
2019-03-06T01:11:31.103Z,6.30
2019-03-06T01:14:01.287Z,6.30
2019-03-06T01:16:31.278Z,6.30
2019-03-06T01:19:01.199Z,6.30
2019-03-06T01:21:31.137Z,6.30
2019-03-06T01:24:01.449Z,6.30
2019-03-06T01:26:31.514Z,6.30
2019-03-06T01:29:01.286Z,6.30
2019-03-06T01:31:31.579Z,6.30
2019-03-06T01:34:16.264Z,6.20
2019-03-06T01:37:04.088Z,6.20
2019-03-06T01:39:43.453Z,6.10
2019-03-06T01:42:20.794Z,6.00
2019-03-06T01:44:53.995Z,6.00
2019-03-06T01:47:23.843Z,5.90
2019-03-06T01:49:53.632Z,5.90
2019-03-06T01:52:24.324Z,5.90
2019-03-06T01:54:54.154Z,5.90
2019-03-06T01:57:23.934Z,5.90
2019-03-06T01:59:53.770Z,5.90
2019-03-06T02:02:23.623Z,5.90
2019-03-06T02:04:53.509Z,5.90
2019-03-06T02:07:25.528Z,5.90
2019-03-06T02:09:55.488Z,5.90
2019-03-06T02:12:25.297Z,6.00
2019-03-06T02:14:55.993Z,5.90
2019-03-06T02:17:25.897Z,5.90
2019-03-06T02:19:55.847Z,6.00
2019-03-06T02:22:26.448Z,6.00
2019-03-06T02:24:56.259Z,6.00
2019-03-06T02:27:26.052Z,6.00
2019-03-06T02:29:56.092Z,6.00
2019-03-06T02:32:26.319Z,6.00
2019-03-06T02:34:56.163Z,6.10
2019-03-06T02:37:27.179Z,6.10
2019-03-06T02:39:57.090Z,6.10
2019-03-06T02:42:27.295Z,6.10
2019-03-06T02:44:57.424Z,6.10
2019-03-06T02:47:27.292Z,6.10
2019-03-06T02:49:57.104Z,6.10
2019-03-06T02:52:27.020Z,6.10
2019-03-06T02:54:57.501Z,6.10
2019-03-06T02:57:27.383Z,6.10
2019-03-06T03:00:25.802Z,6.10
2019-03-06T03:03:04.917Z,6.10
2019-03-06T03:06:06.251Z,6.10
2019-03-06T03:08:37.406Z,6.20
2019-03-06T03:11:07.643Z,6.20
2019-03-06T03:13:45.258Z,6.10
2019-03-06T03:16:15.133Z,6.20
2019-03-06T03:18:44.923Z,6.20
2019-03-06T03:21:15.205Z,6.20
2019-03-06T03:23:46.290Z,6.20
2019-03-06T03:26:16.113Z,6.20
2019-03-06T03:31:24.599Z,6.20
2019-03-06T03:33:54.390Z,6.20
2019-03-06T03:36:24.573Z,6.20
2019-03-06T03:38:54.516Z,6.20
2019-03-06T03:41:24.561Z,6.20
2019-03-06T03:43:54.663Z,6.30
2019-03-06T03:46:24.894Z,6.30
2019-03-06T03:48:54.674Z,6.30
2019-03-06T03:51:24.471Z,6.30
2019-03-06T03:53:54.324Z,6.30
2019-03-06T03:56:24.564Z,6.30
2019-03-06T03:58:54.319Z,6.30
2019-03-06T04:01:24.189Z,6.30
2019-03-06T04:03:58.045Z,6.30
2019-03-06T04:06:27.914Z,6.30
2019-03-06T04:08:57.712Z,6.30
2019-03-06T04:11:27.573Z,6.30
2019-03-06T04:13:57.369Z,6.40
2019-03-06T04:16:27.211Z,6.40
2019-03-06T04:18:57.438Z,6.40
2019-03-06T04:21:30.927Z,6.40
2019-03-06T04:24:00.718Z,6.50
2019-03-06T04:26:31.973Z,6.50
2019-03-06T04:29:01.919Z,6.50
2019-03-06T04:31:31.783Z,6.50
2019-03-06T04:34:01.643Z,6.50
2019-03-06T04:36:31.808Z,6.60
2019-03-06T04:39:01.618Z,6.60
2019-03-06T04:41:31.668Z,6.60
2019-03-06T04:44:02.739Z,6.60
2019-03-06T04:46:32.604Z,6.60
2019-03-06T04:49:02.436Z,6.60
2019-03-06T04:51:32.262Z,6.60
2019-03-06T04:54:03.017Z,6.70
2019-03-06T04:56:33.373Z,6.70
2019-03-06T04:59:03.717Z,6.70
2019-03-06T05:01:33.522Z,6.70
2019-03-06T05:04:03.582Z,6.70
2019-03-06T05:06:37.864Z,6.80
2019-03-06T05:09:10.202Z,6.80
2019-03-06T05:11:39.964Z,6.80
2019-03-06T05:14:11.940Z,6.80
2019-03-06T05:16:56.556Z,6.80
2019-03-06T05:19:26.427Z,6.80
2019-03-06T05:21:56.228Z,6.80
2019-03-06T05:24:26.566Z,6.80
2019-03-06T05:26:56.380Z,6.80
2019-03-06T05:29:27.237Z,6.90
2019-03-06T05:32:34.640Z,6.80
2019-03-06T05:35:14.429Z,6.80
2019-03-06T05:37:57.225Z,6.90
2019-03-06T05:40:27.048Z,6.90
2019-03-06T05:43:00.257Z,6.80
2019-03-06T05:45:30.115Z,6.80
2019-03-06T05:48:00.292Z,6.80
2019-03-06T05:50:32.596Z,6.80
2019-03-06T05:53:02.664Z,6.80
2019-03-06T05:55:32.527Z,6.70
2019-03-06T05:58:04.560Z,6.70
2019-03-06T06:00:34.483Z,6.70
2019-03-06T06:03:07.332Z,6.70
2019-03-06T06:05:37.593Z,6.70
2019-03-06T06:08:07.779Z,6.70
2019-03-06T06:10:39.449Z,6.70
2019-03-06T06:13:12.527Z,6.80
2019-03-06T06:15:42.818Z,6.70
2019-03-06T06:18:12.665Z,6.70
2019-03-06T06:20:42.484Z,6.80
2019-03-06T06:23:44.503Z,6.80
2019-03-06T06:26:14.314Z,6.80
2019-03-06T06:28:44.108Z,6.80
2019-03-06T06:31:14.957Z,6.80
2019-03-06T06:33:45.440Z,6.90
2019-03-06T06:36:15.309Z,6.90
2019-03-06T06:38:45.509Z,6.90
2019-03-06T06:41:15.335Z,7.00
2019-03-06T06:43:45.377Z,7.00
2019-03-06T06:46:15.203Z,7.10
2019-03-06T06:48:45.059Z,7.10
2019-03-06T06:51:52.458Z,7.10
2019-03-06T06:54:44.378Z,7.10
2019-03-06T06:58:00.613Z,7.10
2019-03-06T07:01:22.787Z,7.10
2019-03-06T07:04:56.691Z,7.20
2019-03-06T07:07:51.779Z,7.30
2019-03-06T07:10:39.666Z,7.30
2019-03-06T07:13:31.158Z,7.40
2019-03-06T07:16:20.871Z,7.40
2019-03-06T07:19:18.921Z,7.40
2019-03-06T07:22:03.279Z,7.50
2019-03-06T07:24:58.424Z,7.50
2019-03-06T07:27:49.869Z,7.50
2019-03-06T07:30:34.903Z,7.50
2019-03-06T07:33:25.168Z,7.60
2019-03-06T07:36:20.571Z,7.60
2019-03-06T07:38:55.878Z,7.70
2019-03-06T07:44:37.972Z,7.70
2019-03-06T07:47:18.552Z,7.70
2019-03-06T07:50:16.074Z,7.70
2019-03-06T07:53:16.619Z,7.70
2019-03-06T07:56:01.613Z,7.70
2019-03-06T07:58:53.268Z,7.80
2019-03-06T08:01:24.920Z,7.90
2019-03-06T08:04:07.673Z,7.90
2019-03-06T08:06:37.821Z,8.00
2019-03-06T08:09:11.242Z,8.10
2019-03-06T08:12:10.677Z,8.10
2019-03-06T08:15:11.635Z,8.10
2019-03-06T08:17:53.913Z,8.20
2019-03-06T08:20:46.148Z,8.30
2019-03-06T08:23:43.156Z,8.30
2019-03-06T08:26:13.007Z,8.40
2019-03-06T08:28:43.090Z,8.40
2019-03-06T08:31:25.168Z,8.50
2019-03-06T08:33:55.253Z,8.50
2019-03-06T08:39:40.960Z,8.60
2019-03-06T08:42:51.128Z,8.70
2019-03-06T08:45:26.831Z,8.80
2019-03-06T08:48:10.933Z,8.80
2019-03-06T08:51:09.591Z,9.10
2019-03-06T08:53:48.347Z,9.20
2019-03-06T08:56:50.341Z,9.40
2019-03-06T08:59:36.691Z,9.50
2019-03-06T09:02:27.421Z,9.60
2019-03-06T09:05:31.230Z,9.70
2019-03-06T09:08:11.085Z,9.90
2019-03-06T09:11:03.482Z,9.90
2019-03-06T09:13:50.620Z,10.00
2019-03-06T09:16:34.806Z,10.10
2019-03-06T09:19:33.651Z,10.20
2019-03-06T09:22:25.223Z,10.20
2019-03-06T09:25:17.733Z,10.30
2019-03-06T09:28:13.507Z,10.40
2019-03-06T09:30:51.967Z,10.50
2019-03-06T09:33:50.632Z,10.60
2019-03-06T09:36:52.053Z,10.70
2019-03-06T09:39:42.162Z,10.80
2019-03-06T09:42:33.846Z,10.90
2019-03-06T09:45:25.123Z,11.00
2019-03-06T09:48:16.088Z,11.10
2019-03-06T09:54:08.142Z,11.30
2019-03-06T09:56:56.837Z,11.30
2019-03-06T09:59:49.130Z,11.40
2019-03-06T10:02:34.862Z,11.40
2019-03-06T10:05:34.272Z,11.40
2019-03-06T10:08:15.968Z,11.50
2019-03-06T10:10:58.429Z,11.60
2019-03-06T10:13:52.946Z,11.60
2019-03-06T10:16:48.879Z,11.60
2019-03-06T10:19:30.893Z,11.60
2019-03-06T10:22:01.151Z,11.60
2019-03-06T10:24:38.770Z,11.70
2019-03-06T10:27:08.743Z,11.90
2019-03-06T10:29:40.933Z,12.00
2019-03-06T10:32:11.243Z,12.10
2019-03-06T10:34:41.826Z,12.30
2019-03-06T10:37:12.927Z,12.40
2019-03-06T10:39:43.585Z,12.50
2019-03-06T10:42:14.606Z,12.50
2019-03-06T10:44:44.650Z,12.50
2019-03-06T10:47:20.219Z,12.50
2019-03-06T10:49:51.528Z,12.50
2019-03-06T10:52:21.687Z,12.60
2019-03-06T10:54:51.982Z,12.60
2019-03-06T10:57:25.207Z,12.70
2019-03-06T11:00:01.815Z,12.80
2019-03-06T11:02:34.490Z,12.80
2019-03-06T11:05:19.957Z,12.90
2019-03-06T11:07:53.402Z,12.90
2019-03-06T11:10:47.609Z,13.00
2019-03-06T11:13:17.729Z,13.20
2019-03-06T11:15:55.349Z,13.30
2019-03-06T11:18:22.327Z,13.40
2019-03-06T11:20:56.899Z,13.50
2019-03-06T11:23:46.657Z,13.50
2019-03-06T11:26:19.488Z,13.50
2019-03-06T11:28:50.493Z,13.50
2019-03-06T11:31:53.312Z,13.60
2019-03-06T11:34:23.366Z,13.60
2019-03-06T11:36:53.775Z,13.50
2019-03-06T11:39:24.481Z,13.50
2019-03-06T11:42:02.096Z,13.50
2019-03-06T11:44:32.357Z,13.50
2019-03-06T11:47:02.617Z,13.50
2019-03-06T11:49:35.230Z,13.40
2019-03-06T11:52:09.047Z,13.50
2019-03-06T11:54:39.326Z,13.60
2019-03-06T11:57:09.465Z,13.80
2019-03-06T11:59:40.802Z,13.90
2019-03-06T12:02:11.328Z,14.00
2019-03-06T12:04:41.329Z,14.20
2019-03-06T12:07:11.348Z,14.30
2019-03-06T12:09:44.434Z,14.40
2019-03-06T12:12:14.287Z,14.40
2019-03-06T12:14:44.307Z,14.50
2019-03-06T12:17:18.460Z,14.50
2019-03-06T12:19:48.408Z,14.50
2019-03-06T12:22:18.488Z,14.50
2019-03-06T12:24:53.191Z,14.60
2019-03-06T12:27:23.776Z,14.60
2019-03-06T12:29:54.231Z,14.70
2019-03-06T12:32:27.171Z,14.80
2019-03-06T12:34:59.596Z,14.80
2019-03-06T12:37:47.422Z,14.90
2019-03-06T12:40:18.242Z,15.00
2019-03-06T12:42:50.162Z,15.00
2019-03-06T12:45:24.752Z,15.00
2019-03-06T12:47:57.367Z,15.00
2019-03-06T12:50:27.357Z,14.90
2019-03-06T12:53:04.546Z,14.90
2019-03-06T12:55:35.026Z,14.90
2019-03-06T12:58:14.076Z,14.90
2019-03-06T13:00:41.538Z,14.80
2019-03-06T13:03:29.207Z,14.70
2019-03-06T13:06:02.961Z,14.70
2019-03-06T13:08:49.930Z,14.60
2019-03-06T13:11:16.588Z,14.50
2019-03-06T13:13:46.555Z,14.40
2019-03-06T13:16:41.139Z,14.30
2019-03-06T13:19:11.923Z,14.30
2019-03-06T13:21:57.855Z,14.10
2019-03-06T13:24:31.146Z,14.10
2019-03-06T13:27:01.288Z,14.00
2019-03-06T13:29:31.131Z,13.90
2019-03-06T13:32:01.005Z,13.80
2019-03-06T13:34:50.289Z,13.80
2019-03-06T13:37:15.336Z,13.70
2019-03-06T13:39:45.217Z,13.70
2019-03-06T13:42:18.272Z,13.70
2019-03-06T13:44:48.520Z,13.70
2019-03-06T13:47:21.373Z,13.70
2019-03-06T13:49:51.603Z,13.80
2019-03-06T13:52:22.173Z,13.80
2019-03-06T13:54:55.384Z,13.90
2019-03-06T13:57:29.596Z,13.80
2019-03-06T14:00:00.036Z,13.80
2019-03-06T14:02:31.037Z,13.80
2019-03-06T14:05:00.931Z,13.70
2019-03-06T14:07:31.528Z,13.70
2019-03-06T14:10:01.963Z,13.70
2019-03-06T14:12:34.209Z,13.70
2019-03-06T14:15:05.007Z,13.70
2019-03-06T14:17:35.323Z,13.80
2019-03-06T14:20:15.567Z,13.70
2019-03-06T14:22:54.252Z,13.80
2019-03-06T14:25:25.159Z,13.70
2019-03-06T14:28:03.036Z,13.70
2019-03-06T14:30:33.949Z,13.80
2019-03-06T14:33:04.467Z,13.70
2019-03-06T14:35:34.463Z,13.70
2019-03-06T14:38:08.283Z,13.70
2019-03-06T14:40:38.720Z,13.70
2019-03-06T14:43:11.884Z,13.60
2019-03-06T14:45:44.268Z,13.60
2019-03-06T14:48:14.355Z,13.50
2019-03-06T14:50:44.434Z,13.50
2019-03-06T14:53:16.448Z,13.40
2019-03-06T14:55:53.148Z,13.30
2019-03-06T14:58:24.618Z,13.20
2019-03-06T15:00:56.559Z,13.10
2019-03-06T15:03:37.377Z,13.00
2019-03-06T15:06:10.053Z,12.80
2019-03-06T15:08:52.545Z,12.70
2019-03-06T19:24:19.091Z,9.70
2019-03-06T19:27:00.946Z,9.70
2019-03-06T19:29:37.185Z,9.80
